createdAt,value
2023-01-02T00:00:54.690Z,9.70
2023-01-02T00:03:21.461Z,9.90
2023-01-02T00:05:48.169Z,9.90
2023-01-02T00:08:17.103Z,9.90
2023-01-02T00:10:44.142Z,10.00
2023-01-02T00:13:10.804Z,10.10
2023-01-02T00:15:37.502Z,10.30
2023-01-02T00:18:04.640Z,10.40
2023-01-02T00:20:31.295Z,10.60
2023-01-02T00:22:57.940Z,10.60
2023-01-02T00:25:24.584Z,10.90
2023-01-02T00:27:51.217Z,11.10
2023-01-02T00:30:17.957Z,11.40
2023-01-02T00:32:44.587Z,11.90
2023-01-02T00:35:11.333Z,12.00
2023-01-02T00:37:38.043Z,12.10
2023-01-02T00:40:05.469Z,12.10
2023-01-02T00:42:32.117Z,12.00
2023-01-02T00:44:58.759Z,11.90
2023-01-02T00:47:25.394Z,12.20
2023-01-02T00:49:52.000Z,12.10
2023-01-02T00:52:18.686Z,12.10
2023-01-02T00:54:45.325Z,12.10
2023-01-02T00:57:11.965Z,12.10
2023-01-02T00:59:39.401Z,12.20
2023-01-02T01:02:06.343Z,12.30
2023-01-02T01:04:34.744Z,12.30
2023-01-02T01:07:01.558Z,12.50
2023-01-02T01:09:28.307Z,12.50
2023-01-02T01:11:55.388Z,12.50
2023-01-02T01:14:23.522Z,12.50
2023-01-02T01:16:50.408Z,12.50
2023-01-02T01:19:17.078Z,12.60
2023-01-02T01:21:43.847Z,12.60
2023-01-02T01:24:10.523Z,12.60
2023-01-02T01:26:37.167Z,12.60
2023-01-02T01:29:03.966Z,12.60
2023-01-02T01:31:30.761Z,12.50
2023-01-02T01:33:57.396Z,12.70
2023-01-02T01:36:25.066Z,12.70
2023-01-02T01:38:52.032Z,12.60
2023-01-02T01:41:25.615Z,12.60
2023-01-02T01:43:57.525Z,12.60
2023-01-02T01:46:36.344Z,12.90
2023-01-02T01:49:20.569Z,13.00
2023-01-02T01:51:54.667Z,12.90
2023-01-02T01:54:31.023Z,12.80
2023-01-02T01:57:04.374Z,12.80
2023-01-02T01:59:31.062Z,12.70
2023-01-02T02:01:58.351Z,12.80
2023-01-02T02:04:26.519Z,12.80
2023-01-02T02:06:54.490Z,12.80
2023-01-02T02:09:40.826Z,12.90
2023-01-02T02:12:08.558Z,12.90
2023-01-02T02:14:35.185Z,12.80
2023-01-02T02:17:18.230Z,12.90
2023-01-02T02:20:09.322Z,13.00
2023-01-02T02:23:06.371Z,12.90
2023-01-02T02:26:10.547Z,12.80
2023-01-02T02:29:06.468Z,12.70
2023-01-02T02:32:00.653Z,12.90
2023-01-02T02:34:32.597Z,13.10
2023-01-02T02:37:06.718Z,13.40
2023-01-02T02:39:54.485Z,13.30
2023-01-02T02:42:50.856Z,13.30
2023-01-02T02:45:55.777Z,13.30
2023-01-02T02:48:31.236Z,13.20
2023-01-02T02:51:05.748Z,13.10
2023-01-02T02:53:52.975Z,13.20
2023-01-02T02:56:22.600Z,13.20
2023-01-02T02:58:49.909Z,13.00
2023-01-02T03:01:18.914Z,12.90
2023-01-02T03:03:45.727Z,12.90
2023-01-02T03:06:52.690Z,12.90
2023-01-02T03:09:43.740Z,13.00
2023-01-02T03:12:34.423Z,12.90
2023-01-02T03:15:17.346Z,12.80
2023-01-02T03:18:10.091Z,12.80
2023-01-02T03:20:41.191Z,12.90
2023-01-02T03:23:18.073Z,12.60
2023-01-02T03:25:45.481Z,12.70
2023-01-02T03:28:16.221Z,12.60
2023-01-02T03:30:45.112Z,12.60
2023-01-02T03:33:18.242Z,12.60
2023-01-02T03:35:52.276Z,12.50
2023-01-02T03:38:33.077Z,12.30
2023-01-02T03:41:08.330Z,12.30
2023-01-02T03:43:39.489Z,12.20
2023-01-02T03:46:26.359Z,12.30
2023-01-02T03:48:59.854Z,12.20
2023-01-02T03:51:26.519Z,12.20
2023-01-02T03:53:53.849Z,12.10
2023-01-02T03:56:36.975Z,12.10
2023-01-02T03:59:13.597Z,12.20
2023-01-02T04:01:43.110Z,12.40
2023-01-02T04:04:21.949Z,12.40
2023-01-02T04:06:55.983Z,12.30
2023-01-02T04:09:26.079Z,12.40
2023-01-02T04:11:58.449Z,12.60
2023-01-02T04:14:34.179Z,12.70
2023-01-02T04:17:04.238Z,12.60
2023-01-02T04:19:40.307Z,12.70
2023-01-02T04:22:13.179Z,12.70
2023-01-02T04:24:43.720Z,12.60
2023-01-02T04:27:17.043Z,12.60
2023-01-02T04:29:43.804Z,12.50
2023-01-02T04:32:21.613Z,12.70
2023-01-02T04:34:50.765Z,12.70
2023-01-02T04:37:47.256Z,12.70
2023-01-02T04:40:18.027Z,12.70
2023-01-02T04:42:44.985Z,12.70
2023-01-02T04:45:12.301Z,12.60
2023-01-02T04:47:38.958Z,12.50
2023-01-02T04:50:07.114Z,12.40
2023-01-02T04:52:37.403Z,12.40
2023-01-02T04:55:05.659Z,12.30
2023-01-02T04:57:32.354Z,12.30
2023-01-02T04:59:59.073Z,12.20
2023-01-02T05:02:25.934Z,12.20
2023-01-02T05:04:52.632Z,12.20
2023-01-02T05:07:19.259Z,12.20
2023-01-02T05:09:45.947Z,12.10
2023-01-02T05:12:12.631Z,12.10
2023-01-02T05:14:39.295Z,12.30
2023-01-02T05:17:05.951Z,12.40
2023-01-02T05:19:33.325Z,12.30
2023-01-02T05:22:18.879Z,12.40
2023-01-02T05:24:45.540Z,12.40
2023-01-02T05:27:12.193Z,12.30
2023-01-02T05:29:38.823Z,12.30
2023-01-02T05:32:05.646Z,12.30
2023-01-02T05:34:32.345Z,12.30
2023-01-02T05:37:00.142Z,12.40
2023-01-02T05:39:26.801Z,12.70
2023-01-02T05:41:53.480Z,12.70
2023-01-02T05:44:20.199Z,12.70
2023-01-02T05:46:46.934Z,12.60
2023-01-02T05:49:13.625Z,12.60
2023-01-02T05:51:40.277Z,12.60
2023-01-02T05:54:07.432Z,12.80
2023-01-02T05:56:34.081Z,12.70
2023-01-02T05:59:00.738Z,12.80
2023-01-02T06:01:29.900Z,12.70
2023-01-02T06:03:58.980Z,12.60
2023-01-02T06:06:37.533Z,12.60
2023-01-02T06:09:05.728Z,12.70
2023-01-02T06:11:33.367Z,12.70
2023-01-02T06:14:00.517Z,12.70
2023-01-02T06:16:27.628Z,12.60
2023-01-02T06:18:55.394Z,12.60
2023-01-02T06:21:22.887Z,12.50
2023-01-02T06:23:54.585Z,12.50
2023-01-02T06:26:21.949Z,12.40
2023-01-02T06:28:53.878Z,12.30
2023-01-02T06:31:22.380Z,12.50
2023-01-02T06:33:54.508Z,12.40
2023-01-02T06:36:21.457Z,12.40
2023-01-02T06:38:48.170Z,12.40
2023-01-02T06:41:15.895Z,12.50
2023-01-02T06:43:45.069Z,12.60
2023-01-02T06:46:13.412Z,12.50
2023-01-02T06:48:40.724Z,12.40
2023-01-02T06:51:16.501Z,12.30
2023-01-02T06:53:44.124Z,12.40
2023-01-02T06:56:11.874Z,12.30
2023-01-02T06:58:39.724Z,12.30
2023-01-02T07:01:10.361Z,12.30
2023-01-02T07:03:37.245Z,12.40
2023-01-02T07:06:12.977Z,12.40
2023-01-02T07:08:40.366Z,12.30
2023-01-02T07:11:22.409Z,12.30
2023-01-02T07:13:51.314Z,12.30
2023-01-02T07:16:20.277Z,12.30
2023-01-02T07:18:47.237Z,12.20
2023-01-02T07:21:15.296Z,12.30
2023-01-02T07:23:42.583Z,12.30
2023-01-02T07:26:10.120Z,12.30
2023-01-02T07:28:37.432Z,12.40
2023-01-02T07:31:06.680Z,12.40
2023-01-02T07:33:34.375Z,12.40
2023-01-02T07:36:03.654Z,12.50
2023-01-02T07:38:31.182Z,12.50
2023-01-02T07:40:57.930Z,12.50
2023-01-02T07:43:24.830Z,12.50
2023-01-02T07:45:51.635Z,12.50
2023-01-02T07:48:18.986Z,12.60
2023-01-02T07:50:46.094Z,12.50
2023-01-02T07:53:13.164Z,12.60
2023-01-02T07:55:39.970Z,12.70
2023-01-02T07:58:07.374Z,12.80
2023-01-02T08:00:34.167Z,12.90
2023-01-02T08:03:01.262Z,13.00
2023-01-02T08:05:28.170Z,13.10
2023-01-02T08:07:54.866Z,13.20
2023-01-02T08:10:21.637Z,13.10
2023-01-02T08:12:48.384Z,13.10
2023-01-02T08:15:15.178Z,13.10
2023-01-02T08:17:41.847Z,13.10
2023-01-02T08:20:10.300Z,13.10
2023-01-02T08:22:37.702Z,13.10
2023-01-02T08:25:05.198Z,13.10
2023-01-02T08:27:33.226Z,13.10
2023-01-02T08:29:59.991Z,13.20
2023-01-02T08:32:26.797Z,13.10
2023-01-02T08:34:53.462Z,13.10
2023-01-02T08:37:20.352Z,13.30
2023-01-02T08:39:47.165Z,13.30
2023-01-02T08:42:13.797Z,13.30
2023-01-02T08:44:40.595Z,13.30
2023-01-02T08:47:07.300Z,13.30
2023-01-02T08:49:33.990Z,13.20
2023-01-02T08:52:00.816Z,13.20
2023-01-02T08:54:27.556Z,13.20
2023-01-02T08:56:54.331Z,13.20
2023-01-02T08:59:23.954Z,13.30
2023-01-02T09:01:51.518Z,13.20
2023-01-02T09:04:18.458Z,13.20
2023-01-02T09:06:45.526Z,13.30
2023-01-02T09:09:14.922Z,13.30
2023-01-02T09:11:50.584Z,13.30
2023-01-02T09:14:19.321Z,13.30
2023-01-02T09:16:46.494Z,13.30
2023-01-02T09:19:13.331Z,13.20
2023-01-02T09:21:40.109Z,13.20
2023-01-02T09:24:07.711Z,13.30
2023-01-02T09:26:37.858Z,13.40
2023-01-02T09:29:04.918Z,13.50
2023-01-02T09:31:31.613Z,13.80
2023-01-02T09:33:58.327Z,13.90
2023-01-02T09:36:25.130Z,14.10
2023-01-02T09:38:56.178Z,14.10
2023-01-02T09:41:44.888Z,14.30
2023-01-02T09:44:17.970Z,14.20
2023-01-02T09:47:03.662Z,14.00
2023-01-02T09:49:55.466Z,13.90
2023-01-02T09:52:32.345Z,13.90
2023-01-02T09:54:59.854Z,13.80
2023-01-02T09:57:41.319Z,13.60
2023-01-02T10:00:22.660Z,13.60
2023-01-02T10:02:55.285Z,13.40
2023-01-02T10:05:54.224Z,13.20
2023-01-02T10:08:58.475Z,13.20
2023-01-02T10:11:48.168Z,13.20
2023-01-02T10:14:38.819Z,13.10
2023-01-02T10:17:13.857Z,13.00
2023-01-02T10:20:02.636Z,13.00
2023-01-02T10:22:48.686Z,13.00
2023-01-02T10:25:32.654Z,13.30
2023-01-02T10:28:22.460Z,13.00
2023-01-02T10:30:56.200Z,13.10
2023-01-02T10:33:44.713Z,12.90
2023-01-02T10:36:23.620Z,12.90
2023-01-02T10:38:51.167Z,12.90
2023-01-02T10:41:18.685Z,12.60
2023-01-02T10:43:52.267Z,12.60
2023-01-02T10:46:19.042Z,12.60
2023-01-02T10:48:51.960Z,12.50
2023-01-02T10:51:20.921Z,12.60
2023-01-02T10:54:00.790Z,12.80
2023-01-02T10:56:32.095Z,12.70
2023-01-02T10:59:00.277Z,12.70
2023-01-02T11:01:27.704Z,12.70
2023-01-02T11:03:54.424Z,12.80
2023-01-02T11:06:38.953Z,12.60
2023-01-02T11:09:20.072Z,12.60
2023-01-02T11:11:51.513Z,12.60
2023-01-02T11:14:22.219Z,12.60
2023-01-02T11:16:50.259Z,12.20
2023-01-02T11:19:29.113Z,12.20
2023-01-02T11:21:56.847Z,12.10
2023-01-02T11:24:27.060Z,12.40
2023-01-02T11:26:55.078Z,12.40
2023-01-02T11:29:27.507Z,12.30
2023-01-02T11:31:59.234Z,12.30
2023-01-02T11:34:34.581Z,12.20
2023-01-02T11:37:06.210Z,12.20
2023-01-02T11:39:34.528Z,12.00
2023-01-02T11:42:23.534Z,11.80
2023-01-02T11:44:56.363Z,11.80
2023-01-02T11:47:35.867Z,11.60
2023-01-02T11:50:03.770Z,11.60
2023-01-02T11:52:46.119Z,11.50
2023-01-02T11:55:30.347Z,11.30
2023-01-02T11:58:03.473Z,11.30
2023-01-02T12:00:35.094Z,11.30
2023-01-02T12:03:19.307Z,11.30
2023-01-02T12:06:07.602Z,11.30
2023-01-02T12:08:51.038Z,11.20
2023-01-02T12:11:44.695Z,11.10
2023-01-02T12:14:24.640Z,11.10
2023-01-02T12:17:40.288Z,10.90
2023-01-02T12:20:41.223Z,10.90
2023-01-02T12:23:40.921Z,11.10
2023-01-02T12:26:15.711Z,10.90
2023-01-02T12:28:45.332Z,10.90
2023-01-02T12:31:50.326Z,10.80
2023-01-02T12:34:33.987Z,10.80
2023-01-02T12:37:21.567Z,10.90
2023-01-02T12:40:12.553Z,10.80
2023-01-02T12:42:58.207Z,11.00
2023-01-02T12:45:40.364Z,10.90
2023-01-02T12:48:32.999Z,10.90
2023-01-02T12:51:35.068Z,10.80
2023-01-02T12:54:29.805Z,10.90
2023-01-02T12:57:23.185Z,10.90
2023-01-02T13:00:28.214Z,11.10
2023-01-02T13:03:29.176Z,11.10
2023-01-02T13:06:05.838Z,11.00
2023-01-02T13:08:48.169Z,11.00
2023-01-02T13:11:23.978Z,11.00
2023-01-02T13:13:50.877Z,11.00
2023-01-02T13:16:25.391Z,11.10
2023-01-02T13:19:11.315Z,11.10
2023-01-02T13:21:49.731Z,11.10
2023-01-02T13:24:22.847Z,11.20
2023-01-02T13:26:50.331Z,11.20
2023-01-02T13:29:17.245Z,11.20
2023-01-02T13:31:49.449Z,11.30
2023-01-02T13:34:29.606Z,11.40
2023-01-02T13:37:06.852Z,11.50
2023-01-02T13:39:39.235Z,11.50
2023-01-02T13:42:26.672Z,11.50
2023-01-02T13:44:56.560Z,11.50
2023-01-02T13:48:03.792Z,11.50
2023-01-02T13:50:32.152Z,11.50
2023-01-02T13:53:10.123Z,11.40
2023-01-02T13:55:39.697Z,11.50
2023-01-02T13:58:12.703Z,11.50
2023-01-02T14:00:42.066Z,11.40
2023-01-02T14:03:23.796Z,11.40
2023-01-02T14:05:56.835Z,11.40
2023-01-02T14:08:41.116Z,11.40
2023-01-02T14:11:09.989Z,11.20
2023-01-02T14:13:44.411Z,11.30
2023-01-02T14:16:23.074Z,11.50
2023-01-02T14:19:12.281Z,11.30
2023-01-02T14:21:47.765Z,11.30
2023-01-02T14:24:30.245Z,11.40
2023-01-02T14:27:20.270Z,11.40
2023-01-02T14:29:59.066Z,11.30
2023-01-02T14:32:34.259Z,11.30
2023-01-02T14:35:05.406Z,11.40
2023-01-02T14:37:50.291Z,11.40
2023-01-02T14:40:34.691Z,11.50
2023-01-02T14:43:30.513Z,11.30
2023-01-02T14:46:18.983Z,11.20
2023-01-02T14:49:25.350Z,11.10
2023-01-02T14:52:05.375Z,11.20
2023-01-02T14:54:57.085Z,11.20
2023-01-02T14:57:34.336Z,10.90
2023-01-02T15:00:11.690Z,11.00
2023-01-02T15:02:43.246Z,11.10
2023-01-02T15:05:16.964Z,11.00
2023-01-02T15:07:51.534Z,10.60
2023-01-02T15:10:21.422Z,10.40
2023-01-02T15:13:09.214Z,10.30
2023-01-02T15:15:35.869Z,10.20
2023-01-02T15:18:16.559Z,10.00
2023-01-02T15:20:48.549Z,9.90
2023-01-02T15:23:21.344Z,9.90
2023-01-02T15:25:48.273Z,9.90
2023-01-02T15:28:32.885Z,9.90
2023-01-02T15:31:01.891Z,9.80
2023-01-02T15:33:33.512Z,9.80
2023-01-02T15:36:05.200Z,9.80
2023-01-02T15:38:32.183Z,9.70
2023-01-02T15:40:58.995Z,9.70
2023-01-02T15:43:46.905Z,9.70
2023-01-02T15:46:15.020Z,9.50
2023-01-02T15:48:43.969Z,9.60
2023-01-02T15:51:19.509Z,9.70
2023-01-02T15:53:49.804Z,9.50
2023-01-02T15:56:36.279Z,9.60
2023-01-02T15:59:03.542Z,9.70
2023-01-02T16:01:30.321Z,9.70
2023-01-02T16:04:04.613Z,9.80
2023-01-02T16:06:42.726Z,9.80
2023-01-02T16:09:31.113Z,9.80
2023-01-02T16:12:00.351Z,9.80
2023-01-02T16:14:41.320Z,9.80
2023-01-02T16:17:25.553Z,9.80
2023-01-02T16:20:00.099Z,9.80
2023-01-02T16:22:59.095Z,9.90
2023-01-02T16:25:35.490Z,9.90
2023-01-02T16:28:36.192Z,9.90
2023-01-02T16:31:21.504Z,9.90
2023-01-02T16:33:48.526Z,10.00
2023-01-02T16:36:15.146Z,9.80
2023-01-02T16:38:58.692Z,9.90
2023-01-02T16:41:45.635Z,10.00
2023-01-02T16:44:19.949Z,9.90
2023-01-02T16:46:51.557Z,9.90
2023-01-02T16:49:21.708Z,9.80
2023-01-02T16:51:51.055Z,9.70
2023-01-02T16:54:19.456Z,9.70
2023-01-02T16:56:46.938Z,9.80
2023-01-02T16:59:13.549Z,9.70
2023-01-02T17:01:40.308Z,9.50
2023-01-02T17:04:07.068Z,9.50
2023-01-02T17:06:35.222Z,9.60
2023-01-02T17:09:01.900Z,9.70
2023-01-02T17:11:28.665Z,9.70
2023-01-02T17:13:55.305Z,9.70
2023-01-02T17:16:22.018Z,9.60
2023-01-02T17:18:48.725Z,9.60
2023-01-02T17:21:15.655Z,9.60
2023-01-02T17:23:42.372Z,9.70
2023-01-02T17:26:09.057Z,9.70
2023-01-02T17:28:36.621Z,9.80
2023-01-02T17:31:03.547Z,9.80
2023-01-02T17:33:30.220Z,9.90
2023-01-02T17:35:58.098Z,9.80
2023-01-02T17:38:25.227Z,9.80
2023-01-02T17:40:57.610Z,9.70
2023-01-02T17:43:26.084Z,9.70
2023-01-02T17:45:52.818Z,9.80
2023-01-02T17:48:24.317Z,9.80
2023-01-02T17:50:52.798Z,9.80
2023-01-02T17:53:19.507Z,10.00
2023-01-02T17:56:21.420Z,9.90
2023-01-02T17:58:41.112Z,9.90
2023-01-02T18:01:12.526Z,9.90
2023-01-02T18:03:39.188Z,9.80
2023-01-02T18:06:06.425Z,9.60
2023-01-02T18:08:33.935Z,9.60
2023-01-02T18:11:03.891Z,9.60
2023-01-02T18:13:32.521Z,9.40
2023-01-02T18:15:59.198Z,9.40
2023-01-02T18:18:27.429Z,9.50
2023-01-02T18:20:54.101Z,9.40
2023-01-02T18:23:20.756Z,9.40
2023-01-02T18:25:47.420Z,9.30
2023-01-02T18:28:23.213Z,9.30
2023-01-02T18:30:56.207Z,9.40
2023-01-02T18:33:23.623Z,9.50
2023-01-02T18:35:59.356Z,9.40
2023-01-02T18:38:30.909Z,9.50
2023-01-02T18:40:58.008Z,9.50
2023-01-02T18:43:35.641Z,9.50
2023-01-02T18:46:15.036Z,9.50
2023-01-02T18:48:41.979Z,9.30
2023-01-02T18:51:18.396Z,9.30
2023-01-02T18:53:51.340Z,9.30
2023-01-02T18:56:25.005Z,9.40
2023-01-02T18:59:27.143Z,9.50
2023-01-02T19:01:57.809Z,9.60
2023-01-02T19:04:28.222Z,9.60
2023-01-02T19:06:57.605Z,9.70
2023-01-02T19:09:29.590Z,9.60
2023-01-02T19:12:18.455Z,9.70
2023-01-02T19:14:45.232Z,9.70
2023-01-02T19:17:31.267Z,9.70
2023-01-02T19:20:00.047Z,9.60
2023-01-02T19:22:34.878Z,9.50
2023-01-02T19:25:08.515Z,9.70
2023-01-02T19:27:38.009Z,9.70
2023-01-02T19:30:25.441Z,9.60
2023-01-02T19:32:52.253Z,9.50
2023-01-02T19:35:24.838Z,9.50
2023-01-02T19:37:51.889Z,9.50
2023-01-02T19:40:21.132Z,9.50
2023-01-02T19:42:49.240Z,9.50
2023-01-02T19:45:20.166Z,9.30
2023-01-02T19:47:48.078Z,9.30
2023-01-02T19:50:19.116Z,9.40
2023-01-02T19:52:45.985Z,9.30
2023-01-02T19:55:13.605Z,9.20
2023-01-02T19:57:40.751Z,9.30
2023-01-02T20:00:12.584Z,9.20
2023-01-02T20:02:41.139Z,9.20
2023-01-02T20:05:08.950Z,9.40
2023-01-02T20:07:35.597Z,9.40
2023-01-02T20:10:02.294Z,9.50
2023-01-02T20:12:29.920Z,9.60
2023-01-02T20:14:58.197Z,9.70
2023-01-02T20:17:24.994Z,9.70
2023-01-02T20:19:51.722Z,9.50
2023-01-02T20:22:18.407Z,9.40
2023-01-02T20:24:45.110Z,9.50
2023-01-02T20:27:13.897Z,9.40
2023-01-02T20:29:40.604Z,9.40
2023-01-02T20:32:07.833Z,9.20
2023-01-02T20:34:34.631Z,9.10
2023-01-02T20:37:01.262Z,9.00
2023-01-02T20:39:27.920Z,9.00
2023-01-02T20:41:54.596Z,9.00
2023-01-02T20:44:21.278Z,9.10
2023-01-02T20:46:48.016Z,9.10
2023-01-02T20:49:14.742Z,8.90
2023-01-02T20:51:41.443Z,8.80
2023-01-02T20:54:08.765Z,8.70
2023-01-02T20:56:35.643Z,8.70
2023-01-02T20:59:02.852Z,8.60
2023-01-02T21:01:29.705Z,8.60
2023-01-02T21:03:56.634Z,8.40
2023-01-02T21:06:23.386Z,8.30
2023-01-02T21:08:50.050Z,8.40
2023-01-02T21:11:16.805Z,8.50
2023-01-02T21:13:43.473Z,8.40
2023-01-02T21:16:10.181Z,8.30
2023-01-02T21:18:39.476Z,8.30
2023-01-02T21:21:10.474Z,8.40
2023-01-02T21:23:39.882Z,8.40
2023-01-02T21:26:09.025Z,8.40
2023-01-02T21:28:36.347Z,8.40
2023-01-02T21:31:03.423Z,8.30
2023-01-02T21:33:31.137Z,8.10
2023-01-02T21:36:01.264Z,8.10
2023-01-02T21:38:28.714Z,8.10
2023-01-02T21:41:16.212Z,8.20
2023-01-02T21:43:43.095Z,8.30
2023-01-02T21:46:09.916Z,8.40
2023-01-02T21:48:38.078Z,8.40
2023-01-02T21:51:06.195Z,8.40
2023-01-02T21:53:33.073Z,8.50
2023-01-02T21:55:59.930Z,8.50
2023-01-02T21:58:26.729Z,8.50
2023-01-02T22:00:53.480Z,8.60
2023-01-02T22:03:20.254Z,8.70
2023-01-02T22:05:47.138Z,8.70
2023-01-02T22:08:14.315Z,8.80
2023-01-02T22:10:40.973Z,9.00
2023-01-02T22:13:07.685Z,9.00
2023-01-02T22:15:34.385Z,9.00
2023-01-02T22:18:01.040Z,9.10
2023-01-02T22:20:27.844Z,9.20
2023-01-02T22:22:54.481Z,9.10
2023-01-02T22:25:21.225Z,9.20
2023-01-02T22:27:47.903Z,9.20
2023-01-02T22:30:34.366Z,9.20
2023-01-02T22:33:01.895Z,9.20
2023-01-02T22:35:28.801Z,9.10
2023-01-02T22:37:57.148Z,9.00
2023-01-02T22:40:23.894Z,9.10
2023-01-02T22:43:09.003Z,9.10
2023-01-02T22:45:46.031Z,9.10
2023-01-02T22:48:26.225Z,9.00
2023-01-02T22:50:56.980Z,9.00
2023-01-02T22:53:26.941Z,8.80
2023-01-02T22:55:54.019Z,8.60
2023-01-02T22:58:21.680Z,8.50
2023-01-02T23:00:56.325Z,8.60
2023-01-02T23:03:23.163Z,8.50
2023-01-02T23:05:49.833Z,8.60
2023-01-02T23:08:16.517Z,8.60
2023-01-02T23:10:43.264Z,8.70
2023-01-02T23:13:09.928Z,8.70
2023-01-02T23:15:56.598Z,8.50
2023-01-02T23:18:42.163Z,8.70
2023-01-02T23:21:09.503Z,8.70
2023-01-02T23:23:36.134Z,8.60
2023-01-02T23:26:04.727Z,8.60
2023-01-02T23:29:05.136Z,8.60
2023-01-02T23:31:18.062Z,8.50
2023-01-02T23:33:44.744Z,8.40
2023-01-02T23:36:11.848Z,8.40
2023-01-02T23:38:38.549Z,8.30
2023-01-02T23:41:05.325Z,8.20
2023-01-02T23:43:32.024Z,8.20
2023-01-02T23:45:58.701Z,8.20
2023-01-02T23:48:25.443Z,8.10
2023-01-02T23:51:03.141Z,8.10
2023-01-02T23:53:29.939Z,8.10
2023-01-02T23:55:56.643Z,8.00
2023-01-02T23:58:23.633Z,8.00
